Toreva, Arizona
Current Conditions -  °F | °C
As of 6:56 PM on Sunday 23 Nov 2014 (Local Time) from KINW Reporting Station
Clear Clear  
Wind Chill: 30°   Ceiling: Unl
Heat Index: 36°   Visibility: 10mi
Dew Point: -6°   Wind: 8mph
Humidity: 17%   Direction: 310°NW
Pressure: 30.17"   Gusts: NA
Location:  35.9162°N, 110.658°W
Report Text: KINW 240156Z AUTO 31007KT 10SM CLR 02/M21 A3017 RMK AO2 SLP209 T00221211
Loading
Personal Weather Stations






























Interactive Weather Map New forecast layout! Learn more

10-Day Weather Forecast

Advertisements
Track Severe Weather on mobile